AirNav   Duncan Aviation - Near you to keep you flying
 
 1011 users online  

IL93 Hendrickson Flying Service Airport
Creston, Illinois, USA

GOING TO CRESTON?


FAA INFORMATION EFFECTIVE 01 DECEMBER 2022

Location

FAA Identifier: IL93
Lat/Long: 41-56-43.1020N 088-55-26.3340W
41-56.718367N 088-55.438900W
41.9453061,-88.9239817
(estimated)
Elevation: 889 ft. / 271 m (estimated)
Variation: 00W (1985)
From city: 2 miles NE of CRESTON, IL
Time zone: UTC -6 (UTC -5 during Daylight Saving Time)
Zip code: 60150

Airport Operations

Airport use: Private use. Permission required prior to landing
Activation date: 04/1982
Control tower: no
ARTCC: CHICAGO CENTER
FSS: KANKAKEE FLIGHT SERVICE STATION
Attendance: CONTINUOUS
Wind indicator: yes
Segmented circle: no

Airport Communications

WX AWOS-3 at RPJ (8 nm SW): 125.2 (815-562-2955)
WX AWOS-3 at DKB (10 nm E): 119.075 (815-748-2350)
WX ASOS at RFD (17 nm NW): PHONE 815-484-6229

Nearby radio navigation aids

VOR radial/distance  VOR name  Freq  Var
DPAr275/25.8DUPAGE VOR/DME108.4002E
PLLr090/26.8POLO VOR/DME111.2003E
JOTr309/36.2JOLIET VOR/DME112.3002E
JVLr165/37.6JANESVILLE VOR/DME114.3003E

Airport Services

Airframe service: NONE
Powerplant service: NONE

Runway Information

Runway 18/36

Dimensions: 2800 x 80 ft. / 853 x 24 m
Surface: turf
RUNWAY 18  RUNWAY 36
Traffic pattern: leftleft
Obstructions: none20 ft. pline, 640 ft. from runway

Helipad H1

Dimensions: 150 x 150 ft. / 46 x 46 m
Surface: turf
Traffic pattern: leftleft

Airport Ownership and Management from official FAA records

Ownership: Privately-owned
Owner: HENDRICKSON FLYING SERVICE
21532 QUITNO RD
ROCHELLE, IL 61068
Phone 815-384-5151
Manager: CAMERON C. HENDRICKSON
21532 QUITNO RD
ROCHELLE, IL 61068-9413
Phone 815-384-5151

Airport Operational Statistics

Aircraft based on the field: 16
Single engine airplanes: 8
Helicopters: 7
Ultralights: 1
    

Additional Remarks

HELIPAD IS WEST OF SOUTH END OF RWY.
FOR CD CTC CHICAGO ARTCC AT 630-906-8921.

Instrument Procedures

There are no published instrument procedures at IL93.

Some nearby airports with instrument procedures:

KRPJ - Rochelle Municipal Airport/Koritz Field (8 nm SW)
KDKB - De Kalb Taylor Municipal Airport (10 nm E)
KRFD - Chicago/Rockford International Airport (17 nm NW)
KARR - Aurora Municipal Airport (23 nm SE)
C77 - Poplar Grove Airport (23 nm N)
 
Loc | Ops | Rwys | IFR | FBO | Links
Com | Nav | Svcs | Stats | Notes
Area around IL93 (Hendrickson Flying Service Airport)
 
Road maps at: MapQuest Bing Google
 
Aerial photo
No photo
 
Sectional chart

 
Airport distance calculator
Flying to Hendrickson Flying Service Airport? Find the distance to fly.

From to IL93

Sunrise and sunset
Times for 04-Dec-2022
 Local
(UTC-6)
 Zulu
(UTC)
Morning civil twilight06:3712:37
Sunrise07:0813:08
Sunset16:2422:24
Evening civil twilight16:5522:55

Current date and time
Zulu (UTC)  05-Dec-2022 00:53:02
Local (UTC-6)  04-Dec-2022 18:53:02
 
METAR
KRPJ 
7nm SW 
050035Z AUTO 20010KT 10SM CLR M02/M07 A3003 RMK AO2 T10201071 TSNO
KDKB 
10nm E 
050035Z AUTO 21011KT 10SM CLR M01/M07 A3002 RMK AO2 T10131070
KRFD 
17nm NW 
042354Z 17005KT 10SM FEW250 M01/M09 A3003 RMK AO2 SLP179 T10061094 10039 21033 56015 $
TAF
KRFD 
17nm NW 
042055Z 0421/0518 22009KT P6SM FEW250 FM050200 21008KT P6SM SCT250 WS010/24035KT FM051200 20011G17KT P6SM BKN100
NOTAMs
Click for the latest NOTAMs
NOTAMs are issued by the DoD/FAA and will open in a separate window not controlled by AirNav.

 

 
 

Would you like to see your business listed on this page?

 If your business provides an interesting product or service to pilots, flight crews, aircraft, or users of the Hendrickson Flying Service Airport, you should consider listing it here.  To start the listing process, click on the button below
 
Add a business
 

Other Pages about Hendrickson Flying Service Airport

Update a link
 
Copyright © AirNav, LLC. All rights reserved. Privacy Policy  Contact